sensor_id;sensor_type;location;lat;lon;timestamp;P1;durP1;ratioP1;P2;durP2;ratioP2
22786;SDS011;63134;52.020;4.714;2023-06-14T00:00:30;8.27;;;3.58;;
22786;SDS011;63134;52.020;4.714;2023-06-14T00:03:16;6.72;;;4.18;;
22786;SDS011;63134;52.020;4.714;2023-06-14T00:06:03;9.15;;;3.65;;
22786;SDS011;63134;52.020;4.714;2023-06-14T00:08:48;6.63;;;3.47;;
22786;SDS011;63134;52.020;4.714;2023-06-14T00:11:34;9.18;;;4.20;;
22786;SDS011;63134;52.020;4.714;2023-06-14T00:14:20;5.72;;;4.10;;
22786;SDS011;63134;52.020;4.714;2023-06-14T00:17:05;5.75;;;3.78;;
22786;SDS011;63134;52.020;4.714;2023-06-14T00:19:52;12.10;;;4.10;;
22786;SDS011;63134;52.020;4.714;2023-06-14T00:22:49;10.48;;;3.95;;
22786;SDS011;63134;52.020;4.714;2023-06-14T00:25:35;11.43;;;3.78;;
22786;SDS011;63134;52.020;4.714;2023-06-14T00:28:22;5.07;;;4.13;;
22786;SDS011;63134;52.020;4.714;2023-06-14T00:31:08;8.65;;;3.72;;
22786;SDS011;63134;52.020;4.714;2023-06-14T00:33:53;9.38;;;4.10;;
22786;SDS011;63134;52.020;4.714;2023-06-14T00:36:39;10.13;;;4.43;;
22786;SDS011;63134;52.020;4.714;2023-06-14T00:39:24;8.43;;;3.85;;
22786;SDS011;63134;52.020;4.714;2023-06-14T00:42:10;12.05;;;4.32;;
22786;SDS011;63134;52.020;4.714;2023-06-14T00:44:58;11.15;;;4.72;;
22786;SDS011;63134;52.020;4.714;2023-06-14T00:47:43;10.48;;;4.07;;
22786;SDS011;63134;52.020;4.714;2023-06-14T00:50:31;13.55;;;3.80;;
22786;SDS011;63134;52.020;4.714;2023-06-14T00:53:18;10.75;;;4.32;;
22786;SDS011;63134;52.020;4.714;2023-06-14T00:56:05;10.20;;;4.30;;
22786;SDS011;63134;52.020;4.714;2023-06-14T00:58:51;11.55;;;4.07;;
22786;SDS011;63134;52.020;4.714;2023-06-14T01:01:37;8.00;;;3.90;;
22786;SDS011;63134;52.020;4.714;2023-06-14T01:04:26;14.65;;;3.95;;
22786;SDS011;63134;52.020;4.714;2023-06-14T01:07:15;11.40;;;4.28;;
22786;SDS011;63134;52.020;4.714;2023-06-14T01:13:35;6.70;;;3.78;;
22786;SDS011;63134;52.020;4.714;2023-06-14T01:16:23;12.45;;;3.90;;
22786;SDS011;63134;52.020;4.714;2023-06-14T01:19:11;7.30;;;3.80;;
22786;SDS011;63134;52.020;4.714;2023-06-14T01:21:59;7.50;;;3.28;;
22786;SDS011;63134;52.020;4.714;2023-06-14T01:24:46;10.77;;;3.75;;
22786;SDS011;63134;52.020;4.714;2023-06-14T01:27:35;8.98;;;3.38;;
22786;SDS011;63134;52.020;4.714;2023-06-14T01:30:22;7.40;;;3.60;;
22786;SDS011;63134;52.020;4.714;2023-06-14T01:33:14;6.47;;;3.40;;
22786;SDS011;63134;52.020;4.714;2023-06-14T01:36:01;11.43;;;3.78;;
22786;SDS011;63134;52.020;4.714;2023-06-14T01:38:47;13.50;;;3.60;;
22786;SDS011;63134;52.020;4.714;2023-06-14T01:41:37;8.98;;;4.13;;
22786;SDS011;63134;52.020;4.714;2023-06-14T01:44:23;7.97;;;4.07;;
22786;SDS011;63134;52.020;4.714;2023-06-14T01:47:09;8.13;;;3.55;;
22786;SDS011;63134;52.020;4.714;2023-06-14T01:49:56;11.18;;;4.05;;
22786;SDS011;63134;52.020;4.714;2023-06-14T01:52:42;10.38;;;4.18;;
22786;SDS011;63134;52.020;4.714;2023-06-14T01:55:28;6.28;;;3.35;;
22786;SDS011;63134;52.020;4.714;2023-06-14T01:58:13;4.82;;;3.30;;
22786;SDS011;63134;52.020;4.714;2023-06-14T02:01:01;17.80;;;3.60;;
22786;SDS011;63134;52.020;4.714;2023-06-14T02:03:47;11.73;;;4.20;;
22786;SDS011;63134;52.020;4.714;2023-06-14T02:06:33;6.60;;;3.60;;
22786;SDS011;63134;52.020;4.714;2023-06-14T02:09:19;5.05;;;3.25;;
22786;SDS011;63134;52.020;4.714;2023-06-14T02:12:04;7.25;;;3.40;;
22786;SDS011;63134;52.020;4.714;2023-06-14T02:14:50;8.50;;;4.00;;
22786;SDS011;63134;52.020;4.714;2023-06-14T02:17:36;6.00;;;3.78;;
22786;SDS011;63134;52.020;4.714;2023-06-14T02:20:24;7.70;;;3.42;;
22786;SDS011;63134;52.020;4.714;2023-06-14T02:23:09;11.18;;;3.55;;
22786;SDS011;63134;52.020;4.714;2023-06-14T02:25:55;6.60;;;3.28;;
22786;SDS011;63134;52.020;4.714;2023-06-14T02:28:41;12.82;;;3.80;;
22786;SDS011;63134;52.020;4.714;2023-06-14T02:31:26;9.02;;;3.70;;
22786;SDS011;63134;52.020;4.714;2023-06-14T02:34:12;7.68;;;3.50;;
22786;SDS011;63134;52.020;4.714;2023-06-14T02:36:58;8.10;;;3.30;;
22786;SDS011;63134;52.020;4.714;2023-06-14T02:39:44;7.72;;;3.20;;
22786;SDS011;63134;52.020;4.714;2023-06-14T02:42:29;13.50;;;3.58;;
22786;SDS011;63134;52.020;4.714;2023-06-14T02:45:18;12.77;;;3.88;;
22786;SDS011;63134;52.020;4.714;2023-06-14T02:48:04;8.07;;;3.17;;
22786;SDS011;63134;52.020;4.714;2023-06-14T02:50:50;10.57;;;3.55;;
22786;SDS011;63134;52.020;4.714;2023-06-14T02:53:36;27.70;;;3.90;;
22786;SDS011;63134;52.020;4.714;2023-06-14T02:56:21;8.88;;;3.30;;
22786;SDS011;63134;52.020;4.714;2023-06-14T02:59:08;8.70;;;3.63;;
22786;SDS011;63134;52.020;4.714;2023-06-14T03:01:55;11.65;;;3.70;;
22786;SDS011;63134;52.020;4.714;2023-06-14T03:04:44;11.18;;;3.67;;
22786;SDS011;63134;52.020;4.714;2023-06-14T03:07:35;9.90;;;3.78;;
22786;SDS011;63134;52.020;4.714;2023-06-14T03:10:22;8.65;;;4.10;;
22786;SDS011;63134;52.020;4.714;2023-06-14T03:13:08;8.40;;;3.97;;
22786;SDS011;63134;52.020;4.714;2023-06-14T03:15:56;7.88;;;3.60;;
22786;SDS011;63134;52.020;4.714;2023-06-14T03:18:43;11.70;;;4.22;;
22786;SDS011;63134;52.020;4.714;2023-06-14T03:21:28;7.32;;;3.50;;
22786;SDS011;63134;52.020;4.714;2023-06-14T03:24:16;14.48;;;3.80;;
22786;SDS011;63134;52.020;4.714;2023-06-14T03:27:05;9.15;;;3.67;;
22786;SDS011;63134;52.020;4.714;2023-06-14T03:29:51;14.57;;;4.07;;
22786;SDS011;63134;52.020;4.714;2023-06-14T03:32:36;10.00;;;3.90;;
22786;SDS011;63134;52.020;4.714;2023-06-14T03:35:23;12.68;;;3.58;;
22786;SDS011;63134;52.020;4.714;2023-06-14T03:38:10;11.55;;;3.92;;
22786;SDS011;63134;52.020;4.714;2023-06-14T03:40:56;11.50;;;3.88;;
22786;SDS011;63134;52.020;4.714;2023-06-14T03:43:41;12.82;;;3.90;;
22786;SDS011;63134;52.020;4.714;2023-06-14T03:46:28;14.98;;;3.55;;
22786;SDS011;63134;52.020;4.714;2023-06-14T03:49:13;6.97;;;3.47;;
22786;SDS011;63134;52.020;4.714;2023-06-14T03:52:02;12.35;;;3.35;;
22786;SDS011;63134;52.020;4.714;2023-06-14T03:54:53;12.90;;;3.63;;
22786;SDS011;63134;52.020;4.714;2023-06-14T03:57:42;5.68;;;3.70;;
22786;SDS011;63134;52.020;4.714;2023-06-14T04:00:34;8.57;;;3.42;;
22786;SDS011;63134;52.020;4.714;2023-06-14T04:03:21;6.38;;;3.75;;
22786;SDS011;63134;52.020;4.714;2023-06-14T04:06:09;10.25;;;3.58;;
22786;SDS011;63134;52.020;4.714;2023-06-14T04:08:55;7.28;;;3.15;;
22786;SDS011;63134;52.020;4.714;2023-06-14T04:11:40;9.18;;;3.85;;
22786;SDS011;63134;52.020;4.714;2023-06-14T04:14:26;10.32;;;3.58;;
22786;SDS011;63134;52.020;4.714;2023-06-14T04:17:11;11.55;;;3.72;;
22786;SDS011;63134;52.020;4.714;2023-06-14T04:20:01;6.00;;;3.28;;
22786;SDS011;63134;52.020;4.714;2023-06-14T04:22:50;9.65;;;3.75;;
22786;SDS011;63134;52.020;4.714;2023-06-14T04:25:36;8.90;;;3.65;;
22786;SDS011;63134;52.020;4.714;2023-06-14T04:28:22;9.23;;;3.90;;
22786;SDS011;63134;52.020;4.714;2023-06-14T04:31:29;12.77;;;3.90;;
22786;SDS011;63134;52.020;4.714;2023-06-14T04:34:23;7.85;;;3.50;;
22786;SDS011;63134;52.020;4.714;2023-06-14T04:37:12;9.93;;;3.83;;
22786;SDS011;63134;52.020;4.714;2023-06-14T04:39:59;12.25;;;3.70;;
22786;SDS011;63134;52.020;4.714;2023-06-14T04:42:50;10.25;;;3.35;;
22786;SDS011;63134;52.020;4.714;2023-06-14T04:45:37;9.10;;;3.17;;
22786;SDS011;63134;52.020;4.714;2023-06-14T04:48:22;8.27;;;3.20;;
22786;SDS011;63134;52.020;4.714;2023-06-14T04:51:08;13.90;;;3.90;;
22786;SDS011;63134;52.020;4.714;2023-06-14T04:53:54;11.13;;;3.67;;
22786;SDS011;63134;52.020;4.714;2023-06-14T04:56:44;19.00;;;4.65;;
22786;SDS011;63134;52.020;4.714;2023-06-14T04:59:32;9.73;;;3.28;;
22786;SDS011;63134;52.020;4.714;2023-06-14T05:02:23;5.30;;;3.50;;
22786;SDS011;63134;52.020;4.714;2023-06-14T05:05:11;12.45;;;3.58;;
22786;SDS011;63134;52.020;4.714;2023-06-14T05:07:57;12.65;;;3.53;;
22786;SDS011;63134;52.020;4.714;2023-06-14T05:10:43;14.10;;;3.63;;
22786;SDS011;63134;52.020;4.714;2023-06-14T05:13:28;8.82;;;3.97;;
22786;SDS011;63134;52.020;4.714;2023-06-14T05:16:14;5.50;;;3.13;;
22786;SDS011;63134;52.020;4.714;2023-06-14T05:19:03;6.80;;;3.30;;
22786;SDS011;63134;52.020;4.714;2023-06-14T05:21:49;9.68;;;3.33;;
22786;SDS011;63134;52.020;4.714;2023-06-14T05:24:35;9.45;;;3.58;;
22786;SDS011;63134;52.020;4.714;2023-06-14T05:27:20;9.48;;;3.72;;
22786;SDS011;63134;52.020;4.714;2023-06-14T05:30:06;15.20;;;3.85;;
22786;SDS011;63134;52.020;4.714;2023-06-14T05:32:52;8.55;;;3.97;;
22786;SDS011;63134;52.020;4.714;2023-06-14T05:35:44;17.45;;;3.78;;
22786;SDS011;63134;52.020;4.714;2023-06-14T05:38:29;15.85;;;3.40;;
22786;SDS011;63134;52.020;4.714;2023-06-14T05:41:15;14.07;;;3.60;;
22786;SDS011;63134;52.020;4.714;2023-06-14T05:44:00;6.90;;;3.50;;
22786;SDS011;63134;52.020;4.714;2023-06-14T05:46:49;6.60;;;3.05;;
22786;SDS011;63134;52.020;4.714;2023-06-14T05:49:38;6.68;;;3.65;;
22786;SDS011;63134;52.020;4.714;2023-06-14T05:52:23;9.57;;;3.25;;
22786;SDS011;63134;52.020;4.714;2023-06-14T05:55:10;8.75;;;3.20;;
22786;SDS011;63134;52.020;4.714;2023-06-14T05:57:57;18.88;;;3.78;;
22786;SDS011;63134;52.020;4.714;2023-06-14T06:00:43;9.18;;;3.33;;
22786;SDS011;63134;52.020;4.714;2023-06-14T06:03:28;11.05;;;4.10;;
22786;SDS011;63134;52.020;4.714;2023-06-14T06:06:14;6.43;;;2.83;;
22786;SDS011;63134;52.020;4.714;2023-06-14T06:09:01;10.70;;;3.90;;
22786;SDS011;63134;52.020;4.714;2023-06-14T06:11:47;8.48;;;3.72;;
22786;SDS011;63134;52.020;4.714;2023-06-14T06:14:38;7.80;;;3.42;;
22786;SDS011;63134;52.020;4.714;2023-06-14T06:17:24;8.55;;;3.85;;
22786;SDS011;63134;52.020;4.714;2023-06-14T06:20:10;5.60;;;3.10;;
22786;SDS011;63134;52.020;4.714;2023-06-14T06:22:58;9.93;;;3.72;;
22786;SDS011;63134;52.020;4.714;2023-06-14T06:25:43;9.50;;;3.40;;
22786;SDS011;63134;52.020;4.714;2023-06-14T06:28:29;14.48;;;3.88;;
22786;SDS011;63134;52.020;4.714;2023-06-14T06:31:14;6.40;;;3.40;;
22786;SDS011;63134;52.020;4.714;2023-06-14T06:34:00;9.20;;;3.53;;
22786;SDS011;63134;52.020;4.714;2023-06-14T06:36:45;8.65;;;3.35;;
22786;SDS011;63134;52.020;4.714;2023-06-14T06:39:31;7.55;;;3.63;;
22786;SDS011;63134;52.020;4.714;2023-06-14T06:42:16;13.43;;;3.60;;
22786;SDS011;63134;52.020;4.714;2023-06-14T06:45:02;17.08;;;3.83;;
22786;SDS011;63134;52.020;4.714;2023-06-14T06:47:47;6.03;;;3.80;;
22786;SDS011;63134;52.020;4.714;2023-06-14T06:50:36;12.55;;;3.58;;
22786;SDS011;63134;52.020;4.714;2023-06-14T06:53:22;12.82;;;3.22;;
22786;SDS011;63134;52.020;4.714;2023-06-14T06:56:24;20.15;;;3.78;;
22786;SDS011;63134;52.020;4.714;2023-06-14T06:59:09;11.40;;;3.75;;
22786;SDS011;63134;52.020;4.714;2023-06-14T07:01:58;9.88;;;3.67;;
22786;SDS011;63134;52.020;4.714;2023-06-14T07:04:47;9.93;;;3.63;;
22786;SDS011;63134;52.020;4.714;2023-06-14T07:07:32;11.65;;;2.92;;
22786;SDS011;63134;52.020;4.714;2023-06-14T07:10:18;13.57;;;3.42;;
22786;SDS011;63134;52.020;4.714;2023-06-14T07:13:03;6.57;;;3.20;;
22786;SDS011;63134;52.020;4.714;2023-06-14T07:15:49;9.98;;;3.10;;
22786;SDS011;63134;52.020;4.714;2023-06-14T07:18:34;7.53;;;3.13;;
22786;SDS011;63134;52.020;4.714;2023-06-14T07:21:20;8.85;;;3.38;;
22786;SDS011;63134;52.020;4.714;2023-06-14T07:24:06;9.48;;;2.85;;
22786;SDS011;63134;52.020;4.714;2023-06-14T07:26:53;8.93;;;3.25;;
22786;SDS011;63134;52.020;4.714;2023-06-14T07:29:38;14.00;;;3.58;;
22786;SDS011;63134;52.020;4.714;2023-06-14T07:32:24;5.43;;;3.67;;
22786;SDS011;63134;52.020;4.714;2023-06-14T07:35:10;16.50;;;4.03;;
22786;SDS011;63134;52.020;4.714;2023-06-14T07:37:58;11.07;;;3.58;;
22786;SDS011;63134;52.020;4.714;2023-06-14T07:40:44;6.53;;;3.20;;
22786;SDS011;63134;52.020;4.714;2023-06-14T07:43:30;11.20;;;3.88;;
22786;SDS011;63134;52.020;4.714;2023-06-14T07:46:16;8.00;;;3.30;;
22786;SDS011;63134;52.020;4.714;2023-06-14T07:49:01;14.75;;;3.40;;
22786;SDS011;63134;52.020;4.714;2023-06-14T07:51:47;13.07;;;3.40;;
22786;SDS011;63134;52.020;4.714;2023-06-14T07:54:33;8.45;;;3.20;;
22786;SDS011;63134;52.020;4.714;2023-06-14T07:57:18;14.57;;;3.92;;
22786;SDS011;63134;52.020;4.714;2023-06-14T08:00:06;8.63;;;3.42;;
22786;SDS011;63134;52.020;4.714;2023-06-14T08:02:58;5.57;;;3.38;;
22786;SDS011;63134;52.020;4.714;2023-06-14T08:05:45;15.77;;;3.33;;
22786;SDS011;63134;52.020;4.714;2023-06-14T08:08:31;8.32;;;2.90;;
22786;SDS011;63134;52.020;4.714;2023-06-14T08:11:17;7.93;;;3.35;;
22786;SDS011;63134;52.020;4.714;2023-06-14T08:14:02;8.73;;;3.20;;
22786;SDS011;63134;52.020;4.714;2023-06-14T08:16:48;7.60;;;3.40;;
22786;SDS011;63134;52.020;4.714;2023-06-14T08:19:33;13.10;;;2.97;;
22786;SDS011;63134;52.020;4.714;2023-06-14T08:22:19;8.55;;;3.92;;
22786;SDS011;63134;52.020;4.714;2023-06-14T08:25:06;9.85;;;2.88;;
22786;SDS011;63134;52.020;4.714;2023-06-14T08:27:55;7.65;;;3.03;;
22786;SDS011;63134;52.020;4.714;2023-06-14T08:30:43;6.35;;;2.75;;
22786;SDS011;63134;52.020;4.714;2023-06-14T08:33:29;10.93;;;3.45;;
22786;SDS011;63134;52.020;4.714;2023-06-14T08:36:18;5.30;;;2.50;;
22786;SDS011;63134;52.020;4.714;2023-06-14T08:39:03;6.07;;;3.25;;
22786;SDS011;63134;52.020;4.714;2023-06-14T08:41:49;12.13;;;3.40;;
22786;SDS011;63134;52.020;4.714;2023-06-14T08:44:36;12.18;;;2.80;;
22786;SDS011;63134;52.020;4.714;2023-06-14T08:47:22;8.68;;;2.60;;
22786;SDS011;63134;52.020;4.714;2023-06-14T08:50:10;14.48;;;2.88;;
22786;SDS011;63134;52.020;4.714;2023-06-14T08:53:12;6.30;;;2.45;;
22786;SDS011;63134;52.020;4.714;2023-06-14T08:56:05;17.75;;;3.05;;
22786;SDS011;63134;52.020;4.714;2023-06-14T08:58:52;9.68;;;2.85;;
22786;SDS011;63134;52.020;4.714;2023-06-14T09:01:42;6.60;;;2.50;;
22786;SDS011;63134;52.020;4.714;2023-06-14T09:04:48;10.93;;;2.83;;
22786;SDS011;63134;52.020;4.714;2023-06-14T09:07:34;7.28;;;2.63;;
22786;SDS011;63134;52.020;4.714;2023-06-14T09:10:24;5.47;;;2.67;;
22786;SDS011;63134;52.020;4.714;2023-06-14T09:13:20;13.30;;;2.30;;
22786;SDS011;63134;52.020;4.714;2023-06-14T09:16:06;8.00;;;2.75;;
22786;SDS011;63134;52.020;4.714;2023-06-14T09:18:53;9.30;;;2.50;;
22786;SDS011;63134;52.020;4.714;2023-06-14T09:21:42;17.95;;;2.60;;
22786;SDS011;63134;52.020;4.714;2023-06-14T09:24:27;7.57;;;2.28;;
22786;SDS011;63134;52.020;4.714;2023-06-14T09:27:16;12.20;;;2.90;;
22786;SDS011;63134;52.020;4.714;2023-06-14T09:30:04;9.20;;;2.10;;
22786;SDS011;63134;52.020;4.714;2023-06-14T09:32:53;7.72;;;2.75;;
22786;SDS011;63134;52.020;4.714;2023-06-14T09:35:41;10.70;;;2.80;;
22786;SDS011;63134;52.020;4.714;2023-06-14T09:38:26;8.07;;;2.30;;
22786;SDS011;63134;52.020;4.714;2023-06-14T09:41:12;4.45;;;2.47;;
22786;SDS011;63134;52.020;4.714;2023-06-14T09:43:58;6.85;;;2.30;;
22786;SDS011;63134;52.020;4.714;2023-06-14T09:46:45;10.07;;;2.40;;
22786;SDS011;63134;52.020;4.714;2023-06-14T09:49:33;4.82;;;2.25;;
22786;SDS011;63134;52.020;4.714;2023-06-14T09:52:20;7.05;;;2.28;;
22786;SDS011;63134;52.020;4.714;2023-06-14T09:55:12;4.82;;;2.35;;
22786;SDS011;63134;52.020;4.714;2023-06-14T09:57:59;3.30;;;2.00;;
22786;SDS011;63134;52.020;4.714;2023-06-14T10:00:54;6.82;;;1.98;;
22786;SDS011;63134;52.020;4.714;2023-06-14T10:03:41;6.20;;;2.05;;
22786;SDS011;63134;52.020;4.714;2023-06-14T10:06:37;3.88;;;1.98;;
22786;SDS011;63134;52.020;4.714;2023-06-14T10:09:26;8.80;;;2.10;;
22786;SDS011;63134;52.020;4.714;2023-06-14T10:12:16;3.50;;;2.17;;
22786;SDS011;63134;52.020;4.714;2023-06-14T10:15:08;7.38;;;2.10;;
22786;SDS011;63134;52.020;4.714;2023-06-14T10:21:28;7.90;;;1.75;;
22786;SDS011;63134;52.020;4.714;2023-06-14T10:24:23;7.22;;;1.88;;
22786;SDS011;63134;52.020;4.714;2023-06-14T10:27:17;7.22;;;2.03;;
22786;SDS011;63134;52.020;4.714;2023-06-14T10:30:09;5.15;;;1.80;;
22786;SDS011;63134;52.020;4.714;2023-06-14T10:33:04;4.20;;;2.00;;
22786;SDS011;63134;52.020;4.714;2023-06-14T10:36:10;3.78;;;1.70;;
22786;SDS011;63134;52.020;4.714;2023-06-14T10:39:16;6.82;;;1.77;;
22786;SDS011;63134;52.020;4.714;2023-06-14T10:42:03;1.92;;;1.73;;
22786;SDS011;63134;52.020;4.714;2023-06-14T10:44:55;5.55;;;1.65;;
22786;SDS011;63134;52.020;4.714;2023-06-14T10:47:46;7.28;;;1.60;;
22786;SDS011;63134;52.020;4.714;2023-06-14T10:50:37;4.47;;;1.65;;
22786;SDS011;63134;52.020;4.714;2023-06-14T10:53:30;3.85;;;1.70;;
22786;SDS011;63134;52.020;4.714;2023-06-14T10:56:31;5.78;;;1.60;;
22786;SDS011;63134;52.020;4.714;2023-06-14T10:59:19;3.55;;;2.00;;
22786;SDS011;63134;52.020;4.714;2023-06-14T11:05:16;5.43;;;1.85;;
22786;SDS011;63134;52.020;4.714;2023-06-14T11:11:39;6.20;;;2.08;;
22786;SDS011;63134;52.020;4.714;2023-06-14T11:14:33;5.13;;;1.90;;
22786;SDS011;63134;52.020;4.714;2023-06-14T11:17:21;4.13;;;1.83;;
22786;SDS011;63134;52.020;4.714;2023-06-14T11:20:07;7.38;;;1.85;;
22786;SDS011;63134;52.020;4.714;2023-06-14T11:22:53;3.78;;;1.50;;
22786;SDS011;63134;52.020;4.714;2023-06-14T11:25:39;2.78;;;1.65;;
22786;SDS011;63134;52.020;4.714;2023-06-14T11:28:25;1.77;;;1.45;;
22786;SDS011;63134;52.020;4.714;2023-06-14T11:31:26;4.45;;;1.50;;
22786;SDS011;63134;52.020;4.714;2023-06-14T11:34:13;3.92;;;1.55;;
22786;SDS011;63134;52.020;4.714;2023-06-14T11:36:58;4.25;;;1.55;;
22786;SDS011;63134;52.020;4.714;2023-06-14T11:39:46;5.20;;;1.25;;
22786;SDS011;63134;52.020;4.714;2023-06-14T11:42:35;4.78;;;1.27;;
22786;SDS011;63134;52.020;4.714;2023-06-14T11:45:23;2.10;;;1.48;;
22786;SDS011;63134;52.020;4.714;2023-06-14T11:48:09;2.25;;;1.40;;
22786;SDS011;63134;52.020;4.714;2023-06-14T11:50:55;3.45;;;1.40;;
22786;SDS011;63134;52.020;4.714;2023-06-14T11:53:42;3.60;;;1.40;;
22786;SDS011;63134;52.020;4.714;2023-06-14T11:56:28;5.03;;;1.63;;
22786;SDS011;63134;52.020;4.714;2023-06-14T11:59:14;3.88;;;1.40;;
22786;SDS011;63134;52.020;4.714;2023-06-14T12:02:03;4.75;;;1.45;;
22786;SDS011;63134;52.020;4.714;2023-06-14T12:04:49;3.65;;;1.50;;
22786;SDS011;63134;52.020;4.714;2023-06-14T12:07:40;5.75;;;1.58;;
22786;SDS011;63134;52.020;4.714;2023-06-14T12:10:26;3.40;;;1.38;;
22786;SDS011;63134;52.020;4.714;2023-06-14T12:13:13;2.83;;;1.60;;
22786;SDS011;63134;52.020;4.714;2023-06-14T12:16:01;7.07;;;2.05;;
22786;SDS011;63134;52.020;4.714;2023-06-14T12:18:47;1.92;;;1.40;;
22786;SDS011;63134;52.020;4.714;2023-06-14T12:21:33;5.80;;;1.20;;
22786;SDS011;63134;52.020;4.714;2023-06-14T12:24:21;6.57;;;1.50;;
22786;SDS011;63134;52.020;4.714;2023-06-14T12:27:12;2.50;;;1.15;;
22786;SDS011;63134;52.020;4.714;2023-06-14T12:30:01;3.60;;;1.27;;
22786;SDS011;63134;52.020;4.714;2023-06-14T12:32:48;8.73;;;1.60;;
22786;SDS011;63134;52.020;4.714;2023-06-14T12:35:36;8.77;;;1.40;;
22786;SDS011;63134;52.020;4.714;2023-06-14T12:38:22;2.55;;;1.80;;
22786;SDS011;63134;52.020;4.714;2023-06-14T12:41:07;5.60;;;1.60;;
22786;SDS011;63134;52.020;4.714;2023-06-14T12:43:53;6.88;;;1.52;;
22786;SDS011;63134;52.020;4.714;2023-06-14T12:46:41;3.05;;;1.38;;
22786;SDS011;63134;52.020;4.714;2023-06-14T12:49:28;5.40;;;1.60;;
22786;SDS011;63134;52.020;4.714;2023-06-14T12:52:13;4.82;;;1.02;;
22786;SDS011;63134;52.020;4.714;2023-06-14T12:54:59;3.03;;;1.42;;
22786;SDS011;63134;52.020;4.714;2023-06-14T12:57:44;4.20;;;1.85;;
22786;SDS011;63134;52.020;4.714;2023-06-14T13:00:32;3.00;;;1.17;;
22786;SDS011;63134;52.020;4.714;2023-06-14T13:03:19;4.88;;;1.35;;
22786;SDS011;63134;52.020;4.714;2023-06-14T13:06:04;7.13;;;1.40;;
22786;SDS011;63134;52.020;4.714;2023-06-14T13:08:50;2.95;;;1.30;;
22786;SDS011;63134;52.020;4.714;2023-06-14T13:11:36;4.07;;;1.77;;
22786;SDS011;63134;52.020;4.714;2023-06-14T13:14:22;5.68;;;1.60;;
22786;SDS011;63134;52.020;4.714;2023-06-14T13:17:10;5.53;;;1.48;;
22786;SDS011;63134;52.020;4.714;2023-06-14T13:19:56;4.32;;;1.35;;
22786;SDS011;63134;52.020;4.714;2023-06-14T13:22:41;3.65;;;1.40;;
22786;SDS011;63134;52.020;4.714;2023-06-14T13:25:27;3.70;;;1.20;;
22786;SDS011;63134;52.020;4.714;2023-06-14T13:28:16;6.18;;;1.65;;
22786;SDS011;63134;52.020;4.714;2023-06-14T13:31:05;2.70;;;1.30;;
22786;SDS011;63134;52.020;4.714;2023-06-14T13:33:57;2.97;;;1.35;;
22786;SDS011;63134;52.020;4.714;2023-06-14T13:36:42;5.88;;;1.40;;
22786;SDS011;63134;52.020;4.714;2023-06-14T13:39:28;2.20;;;1.25;;
22786;SDS011;63134;52.020;4.714;2023-06-14T13:42:13;4.25;;;1.45;;
22786;SDS011;63134;52.020;4.714;2023-06-14T13:44:58;3.78;;;1.50;;
22786;SDS011;63134;52.020;4.714;2023-06-14T13:47:44;6.20;;;1.50;;
22786;SDS011;63134;52.020;4.714;2023-06-14T13:50:30;7.97;;;1.27;;
22786;SDS011;63134;52.020;4.714;2023-06-14T13:53:15;2.33;;;1.20;;
22786;SDS011;63134;52.020;4.714;2023-06-14T13:56:04;4.72;;;1.33;;
22786;SDS011;63134;52.020;4.714;2023-06-14T13:58:49;3.13;;;1.27;;
22786;SDS011;63134;52.020;4.714;2023-06-14T14:01:36;5.90;;;1.50;;
22786;SDS011;63134;52.020;4.714;2023-06-14T14:04:21;2.75;;;1.20;;
22786;SDS011;63134;52.020;4.714;2023-06-14T14:07:06;1.35;;;1.10;;
22786;SDS011;63134;52.020;4.714;2023-06-14T14:09:53;3.90;;;1.15;;
22786;SDS011;63134;52.020;4.714;2023-06-14T14:12:39;9.02;;;1.55;;
22786;SDS011;63134;52.020;4.714;2023-06-14T14:15:24;4.18;;;1.40;;
22786;SDS011;63134;52.020;4.714;2023-06-14T14:18:10;5.05;;;1.60;;
22786;SDS011;63134;52.020;4.714;2023-06-14T14:20:55;2.85;;;1.20;;
22786;SDS011;63134;52.020;4.714;2023-06-14T14:23:41;5.18;;;1.77;;
22786;SDS011;63134;52.020;4.714;2023-06-14T14:26:27;3.33;;;1.30;;
22786;SDS011;63134;52.020;4.714;2023-06-14T14:29:13;3.30;;;1.42;;
22786;SDS011;63134;52.020;4.714;2023-06-14T14:31:59;2.15;;;1.38;;
22786;SDS011;63134;52.020;4.714;2023-06-14T14:34:44;3.08;;;1.38;;
22786;SDS011;63134;52.020;4.714;2023-06-14T14:37:32;7.28;;;1.40;;
22786;SDS011;63134;52.020;4.714;2023-06-14T14:40:20;4.57;;;1.40;;
22786;SDS011;63134;52.020;4.714;2023-06-14T14:43:05;4.25;;;1.27;;
22786;SDS011;63134;52.020;4.714;2023-06-14T14:45:51;4.70;;;1.50;;
22786;SDS011;63134;52.020;4.714;2023-06-14T14:48:39;4.78;;;1.58;;
22786;SDS011;63134;52.020;4.714;2023-06-14T14:51:27;6.72;;;1.48;;
22786;SDS011;63134;52.020;4.714;2023-06-14T14:54:15;2.42;;;1.40;;
22786;SDS011;63134;52.020;4.714;2023-06-14T14:57:01;2.50;;;1.52;;
22786;SDS011;63134;52.020;4.714;2023-06-14T14:59:47;8.00;;;1.85;;
22786;SDS011;63134;52.020;4.714;2023-06-14T15:02:32;5.13;;;1.25;;
22786;SDS011;63134;52.020;4.714;2023-06-14T15:05:18;4.38;;;1.33;;
22786;SDS011;63134;52.020;4.714;2023-06-14T15:08:04;2.08;;;1.50;;
22786;SDS011;63134;52.020;4.714;2023-06-14T15:11:00;8.85;;;1.38;;
22786;SDS011;63134;52.020;4.714;2023-06-14T15:13:48;6.75;;;1.25;;
22786;SDS011;63134;52.020;4.714;2023-06-14T15:16:34;3.33;;;1.30;;
22786;SDS011;63134;52.020;4.714;2023-06-14T15:19:20;2.75;;;1.13;;
22786;SDS011;63134;52.020;4.714;2023-06-14T15:22:06;4.30;;;1.40;;
22786;SDS011;63134;52.020;4.714;2023-06-14T15:24:52;3.70;;;1.35;;
22786;SDS011;63134;52.020;4.714;2023-06-14T15:27:40;6.78;;;1.27;;
22786;SDS011;63134;52.020;4.714;2023-06-14T15:30:26;2.15;;;1.05;;
22786;SDS011;63134;52.020;4.714;2023-06-14T15:33:11;9.65;;;1.52;;
22786;SDS011;63134;52.020;4.714;2023-06-14T15:35:57;3.60;;;1.38;;
22786;SDS011;63134;52.020;4.714;2023-06-14T15:38:44;5.75;;;1.23;;
22786;SDS011;63134;52.020;4.714;2023-06-14T15:41:29;6.53;;;1.45;;
22786;SDS011;63134;52.020;4.714;2023-06-14T15:44:15;8.38;;;1.23;;
22786;SDS011;63134;52.020;4.714;2023-06-14T15:47:00;4.45;;;1.60;;
22786;SDS011;63134;52.020;4.714;2023-06-14T15:49:46;8.07;;;1.58;;
22786;SDS011;63134;52.020;4.714;2023-06-14T15:52:31;5.32;;;1.20;;
22786;SDS011;63134;52.020;4.714;2023-06-14T15:55:17;3.70;;;1.20;;
22786;SDS011;63134;52.020;4.714;2023-06-14T15:58:03;3.10;;;1.50;;
22786;SDS011;63134;52.020;4.714;2023-06-14T16:00:48;4.53;;;1.33;;
22786;SDS011;63134;52.020;4.714;2023-06-14T16:03:34;1.58;;;1.15;;
22786;SDS011;63134;52.020;4.714;2023-06-14T16:06:20;5.07;;;1.30;;
22786;SDS011;63134;52.020;4.714;2023-06-14T16:09:05;4.45;;;1.80;;
22786;SDS011;63134;52.020;4.714;2023-06-14T16:11:51;4.97;;;1.60;;
22786;SDS011;63134;52.020;4.714;2023-06-14T16:14:36;3.85;;;1.30;;
22786;SDS011;63134;52.020;4.714;2023-06-14T16:17:21;2.17;;;1.20;;
22786;SDS011;63134;52.020;4.714;2023-06-14T16:20:07;4.45;;;1.25;;
22786;SDS011;63134;52.020;4.714;2023-06-14T16:22:58;2.50;;;1.35;;
22786;SDS011;63134;52.020;4.714;2023-06-14T16:25:43;5.38;;;1.00;;
22786;SDS011;63134;52.020;4.714;2023-06-14T16:28:30;4.20;;;1.30;;
22786;SDS011;63134;52.020;4.714;2023-06-14T16:31:17;4.13;;;1.33;;
22786;SDS011;63134;52.020;4.714;2023-06-14T16:34:03;4.30;;;1.00;;
22786;SDS011;63134;52.020;4.714;2023-06-14T16:36:55;2.05;;;1.30;;
22786;SDS011;63134;52.020;4.714;2023-06-14T16:40:01;3.58;;;1.20;;
22786;SDS011;63134;52.020;4.714;2023-06-14T16:42:47;3.42;;;1.55;;
22786;SDS011;63134;52.020;4.714;2023-06-14T16:45:36;8.05;;;1.33;;
22786;SDS011;63134;52.020;4.714;2023-06-14T16:48:22;2.55;;;1.17;;
22786;SDS011;63134;52.020;4.714;2023-06-14T16:51:11;1.75;;;1.00;;
22786;SDS011;63134;52.020;4.714;2023-06-14T16:53:57;2.70;;;1.17;;
22786;SDS011;63134;52.020;4.714;2023-06-14T16:56:42;17.88;;;1.40;;
22786;SDS011;63134;52.020;4.714;2023-06-14T16:59:28;4.00;;;1.20;;